sensor_id;sensor_type;location;lat;lon;timestamp;P1;durP1;ratioP1;P2;durP2;ratioP2
69769;SDS011;57282;52.514;13.458;2023-02-08T00:00:47;50.35;;;19.42;;
69769;SDS011;57282;52.514;13.458;2023-02-08T00:03:13;43.80;;;18.57;;
69769;SDS011;57282;52.514;13.458;2023-02-08T00:05:40;49.63;;;18.25;;
69769;SDS011;57282;52.514;13.458;2023-02-08T00:08:07;37.88;;;15.95;;
69769;SDS011;57282;52.514;13.458;2023-02-08T00:10:35;43.63;;;18.38;;
69769;SDS011;57282;52.514;13.458;2023-02-08T00:13:02;37.95;;;15.75;;
69769;SDS011;57282;52.514;13.458;2023-02-08T00:15:28;36.23;;;16.93;;
69769;SDS011;57282;52.514;13.458;2023-02-08T00:17:59;39.20;;;16.67;;
69769;SDS011;57282;52.514;13.458;2023-02-08T00:20:26;38.28;;;16.20;;
69769;SDS011;57282;52.514;13.458;2023-02-08T00:22:52;38.30;;;16.23;;
69769;SDS011;57282;52.514;13.458;2023-02-08T00:25:21;39.92;;;15.18;;
69769;SDS011;57282;52.514;13.458;2023-02-08T00:27:47;41.90;;;16.17;;
69769;SDS011;57282;52.514;13.458;2023-02-08T00:30:13;36.95;;;16.05;;
69769;SDS011;57282;52.514;13.458;2023-02-08T00:32:40;37.58;;;17.58;;
69769;SDS011;57282;52.514;13.458;2023-02-08T00:35:08;36.35;;;15.90;;
69769;SDS011;57282;52.514;13.458;2023-02-08T00:37:34;43.03;;;17.58;;
69769;SDS011;57282;52.514;13.458;2023-02-08T00:40:01;38.50;;;16.10;;
69769;SDS011;57282;52.514;13.458;2023-02-08T00:42:29;35.40;;;16.13;;
69769;SDS011;57282;52.514;13.458;2023-02-08T00:44:56;38.50;;;14.68;;
69769;SDS011;57282;52.514;13.458;2023-02-08T00:47:23;35.30;;;16.85;;
69769;SDS011;57282;52.514;13.458;2023-02-08T00:49:50;32.70;;;15.38;;
69769;SDS011;57282;52.514;13.458;2023-02-08T00:52:18;38.93;;;16.23;;
69769;SDS011;57282;52.514;13.458;2023-02-08T00:54:45;35.60;;;15.45;;
69769;SDS011;57282;52.514;13.458;2023-02-08T00:57:11;36.90;;;15.82;;
69769;SDS011;57282;52.514;13.458;2023-02-08T00:59:39;36.00;;;15.07;;
69769;SDS011;57282;52.514;13.458;2023-02-08T01:02:06;34.70;;;14.55;;
69769;SDS011;57282;52.514;13.458;2023-02-08T01:04:32;32.87;;;15.20;;
69769;SDS011;57282;52.514;13.458;2023-02-08T01:06:59;36.60;;;15.60;;
69769;SDS011;57282;52.514;13.458;2023-02-08T01:09:26;35.10;;;14.65;;
69769;SDS011;57282;52.514;13.458;2023-02-08T01:11:53;34.20;;;14.52;;
69769;SDS011;57282;52.514;13.458;2023-02-08T01:14:20;33.40;;;14.77;;
69769;SDS011;57282;52.514;13.458;2023-02-08T01:16:46;36.50;;;14.97;;
69769;SDS011;57282;52.514;13.458;2023-02-08T01:19:15;35.28;;;15.73;;
69769;SDS011;57282;52.514;13.458;2023-02-08T01:21:42;36.38;;;15.82;;
69769;SDS011;57282;52.514;13.458;2023-02-08T01:24:09;37.67;;;15.63;;
69769;SDS011;57282;52.514;13.458;2023-02-08T01:26:38;33.35;;;14.38;;
69769;SDS011;57282;52.514;13.458;2023-02-08T01:29:04;32.47;;;14.80;;
69769;SDS011;57282;52.514;13.458;2023-02-08T01:31:32;35.42;;;15.13;;
69769;SDS011;57282;52.514;13.458;2023-02-08T01:34:03;32.03;;;14.18;;
69769;SDS011;57282;52.514;13.458;2023-02-08T01:36:31;36.17;;;14.60;;
69769;SDS011;57282;52.514;13.458;2023-02-08T01:38:58;36.58;;;15.25;;
69769;SDS011;57282;52.514;13.458;2023-02-08T01:41:25;36.97;;;14.33;;
69769;SDS011;57282;52.514;13.458;2023-02-08T01:43:58;34.80;;;14.70;;
69769;SDS011;57282;52.514;13.458;2023-02-08T01:46:27;36.30;;;14.60;;
69769;SDS011;57282;52.514;13.458;2023-02-08T01:48:54;37.20;;;14.80;;
69769;SDS011;57282;52.514;13.458;2023-02-08T01:51:23;34.70;;;14.88;;
69769;SDS011;57282;52.514;13.458;2023-02-08T01:53:52;33.33;;;13.97;;
69769;SDS011;57282;52.514;13.458;2023-02-08T01:56:22;36.20;;;13.90;;
69769;SDS011;57282;52.514;13.458;2023-02-08T01:58:52;26.90;;;12.30;;
69769;SDS011;57282;52.514;13.458;2023-02-08T02:01:22;34.35;;;13.82;;
69769;SDS011;57282;52.514;13.458;2023-02-08T02:03:50;32.72;;;13.18;;
69769;SDS011;57282;52.514;13.458;2023-02-08T02:06:21;30.87;;;12.13;;
69769;SDS011;57282;52.514;13.458;2023-02-08T02:08:54;28.00;;;13.18;;
69769;SDS011;57282;52.514;13.458;2023-02-08T02:11:27;29.42;;;13.20;;
69769;SDS011;57282;52.514;13.458;2023-02-08T02:13:54;29.58;;;13.07;;
69769;SDS011;57282;52.514;13.458;2023-02-08T02:16:22;28.13;;;12.27;;
69769;SDS011;57282;52.514;13.458;2023-02-08T02:18:48;28.80;;;12.53;;
69769;SDS011;57282;52.514;13.458;2023-02-08T02:21:19;27.05;;;13.05;;
69769;SDS011;57282;52.514;13.458;2023-02-08T02:24:08;32.05;;;11.70;;
69769;SDS011;57282;52.514;13.458;2023-02-08T02:27:08;31.38;;;11.25;;
69769;SDS011;57282;52.514;13.458;2023-02-08T02:32:50;30.37;;;12.77;;
69769;SDS011;57282;52.514;13.458;2023-02-08T02:35:27;27.20;;;11.68;;
69769;SDS011;57282;52.514;13.458;2023-02-08T02:38:03;31.13;;;12.68;;
69769;SDS011;57282;52.514;13.458;2023-02-08T02:40:39;34.92;;;13.68;;
69769;SDS011;57282;52.514;13.458;2023-02-08T02:43:14;28.08;;;12.00;;
69769;SDS011;57282;52.514;13.458;2023-02-08T02:46:03;28.33;;;12.63;;
69769;SDS011;57282;52.514;13.458;2023-02-08T02:48:41;28.65;;;12.20;;
69769;SDS011;57282;52.514;13.458;2023-02-08T02:51:14;26.25;;;12.35;;
69769;SDS011;57282;52.514;13.458;2023-02-08T02:53:46;31.45;;;12.27;;
69769;SDS011;57282;52.514;13.458;2023-02-08T02:56:18;26.95;;;11.95;;
69769;SDS011;57282;52.514;13.458;2023-02-08T02:58:47;29.90;;;12.37;;
69769;SDS011;57282;52.514;13.458;2023-02-08T03:01:19;30.00;;;13.40;;
69769;SDS011;57282;52.514;13.458;2023-02-08T03:03:51;31.65;;;13.13;;
69769;SDS011;57282;52.514;13.458;2023-02-08T03:06:19;31.20;;;13.50;;
69769;SDS011;57282;52.514;13.458;2023-02-08T03:09:03;31.17;;;13.20;;
69769;SDS011;57282;52.514;13.458;2023-02-08T03:11:39;30.43;;;12.70;;
69769;SDS011;57282;52.514;13.458;2023-02-08T03:14:18;28.17;;;11.90;;
69769;SDS011;57282;52.514;13.458;2023-02-08T03:16:57;27.80;;;11.73;;
69769;SDS011;57282;52.514;13.458;2023-02-08T03:19:32;25.08;;;12.02;;
69769;SDS011;57282;52.514;13.458;2023-02-08T03:22:04;30.73;;;12.38;;
69769;SDS011;57282;52.514;13.458;2023-02-08T03:24:39;27.17;;;10.97;;
69769;SDS011;57282;52.514;13.458;2023-02-08T03:27:15;26.33;;;11.80;;
69769;SDS011;57282;52.514;13.458;2023-02-08T03:29:48;25.23;;;11.23;;
69769;SDS011;57282;52.514;13.458;2023-02-08T03:32:20;24.83;;;11.30;;
69769;SDS011;57282;52.514;13.458;2023-02-08T03:34:52;26.20;;;11.75;;
69769;SDS011;57282;52.514;13.458;2023-02-08T03:37:23;28.97;;;11.37;;
69769;SDS011;57282;52.514;13.458;2023-02-08T03:39:55;27.02;;;11.10;;
69769;SDS011;57282;52.514;13.458;2023-02-08T03:42:26;30.77;;;10.70;;
69769;SDS011;57282;52.514;13.458;2023-02-08T03:44:56;25.02;;;10.73;;
69769;SDS011;57282;52.514;13.458;2023-02-08T03:47:25;23.48;;;10.20;;
69769;SDS011;57282;52.514;13.458;2023-02-08T03:49:55;25.87;;;10.90;;
69769;SDS011;57282;52.514;13.458;2023-02-08T03:52:28;28.17;;;11.00;;
69769;SDS011;57282;52.514;13.458;2023-02-08T03:54:58;29.20;;;11.20;;
69769;SDS011;57282;52.514;13.458;2023-02-08T03:57:28;23.63;;;9.57;;
69769;SDS011;57282;52.514;13.458;2023-02-08T04:00:00;22.65;;;9.73;;
69769;SDS011;57282;52.514;13.458;2023-02-08T04:02:29;22.93;;;9.37;;
69769;SDS011;57282;52.514;13.458;2023-02-08T04:05:00;24.52;;;9.90;;
69769;SDS011;57282;52.514;13.458;2023-02-08T04:07:27;22.55;;;10.30;;
69769;SDS011;57282;52.514;13.458;2023-02-08T04:09:57;24.00;;;9.98;;
69769;SDS011;57282;52.514;13.458;2023-02-08T04:12:28;19.92;;;9.23;;
69769;SDS011;57282;52.514;13.458;2023-02-08T04:14:54;23.63;;;9.97;;
69769;SDS011;57282;52.514;13.458;2023-02-08T04:17:21;23.10;;;9.48;;
69769;SDS011;57282;52.514;13.458;2023-02-08T04:19:47;23.73;;;9.05;;
69769;SDS011;57282;52.514;13.458;2023-02-08T04:22:15;20.77;;;9.48;;
69769;SDS011;57282;52.514;13.458;2023-02-08T04:24:42;22.15;;;9.60;;
69769;SDS011;57282;52.514;13.458;2023-02-08T04:27:08;20.33;;;9.17;;
69769;SDS011;57282;52.514;13.458;2023-02-08T04:29:35;27.35;;;10.27;;
69769;SDS011;57282;52.514;13.458;2023-02-08T04:32:01;25.95;;;9.73;;
69769;SDS011;57282;52.514;13.458;2023-02-08T04:34:29;22.92;;;9.77;;
69769;SDS011;57282;52.514;13.458;2023-02-08T04:36:58;26.13;;;10.18;;
69769;SDS011;57282;52.514;13.458;2023-02-08T04:39:26;27.17;;;9.07;;
69769;SDS011;57282;52.514;13.458;2023-02-08T04:41:52;22.10;;;9.18;;
69769;SDS011;57282;52.514;13.458;2023-02-08T04:44:18;24.55;;;10.07;;
69769;SDS011;57282;52.514;13.458;2023-02-08T04:46:45;23.88;;;9.50;;
69769;SDS011;57282;52.514;13.458;2023-02-08T04:49:12;22.70;;;8.77;;
69769;SDS011;57282;52.514;13.458;2023-02-08T04:51:38;22.40;;;9.20;;
69769;SDS011;57282;52.514;13.458;2023-02-08T04:54:05;25.02;;;10.23;;
69769;SDS011;57282;52.514;13.458;2023-02-08T04:56:32;27.38;;;9.93;;
69769;SDS011;57282;52.514;13.458;2023-02-08T04:59:07;28.02;;;10.05;;
69769;SDS011;57282;52.514;13.458;2023-02-08T05:01:33;23.38;;;10.18;;
69769;SDS011;57282;52.514;13.458;2023-02-08T05:04:00;28.10;;;9.60;;
69769;SDS011;57282;52.514;13.458;2023-02-08T05:06:26;24.45;;;9.48;;
69769;SDS011;57282;52.514;13.458;2023-02-08T05:08:53;22.35;;;9.13;;
69769;SDS011;57282;52.514;13.458;2023-02-08T05:11:20;18.60;;;8.13;;
69769;SDS011;57282;52.514;13.458;2023-02-08T05:13:48;24.30;;;10.43;;
69769;SDS011;57282;52.514;13.458;2023-02-08T05:16:15;22.17;;;9.10;;
69769;SDS011;57282;52.514;13.458;2023-02-08T05:18:42;24.30;;;9.45;;
69769;SDS011;57282;52.514;13.458;2023-02-08T05:21:08;26.20;;;10.00;;
69769;SDS011;57282;52.514;13.458;2023-02-08T05:23:36;25.27;;;9.70;;
69769;SDS011;57282;52.514;13.458;2023-02-08T05:26:04;25.00;;;10.25;;
69769;SDS011;57282;52.514;13.458;2023-02-08T05:28:31;24.17;;;9.40;;
69769;SDS011;57282;52.514;13.458;2023-02-08T05:30:59;22.35;;;10.05;;
69769;SDS011;57282;52.514;13.458;2023-02-08T05:33:34;22.38;;;8.98;;
69769;SDS011;57282;52.514;13.458;2023-02-08T05:36:00;21.92;;;8.95;;
69769;SDS011;57282;52.514;13.458;2023-02-08T05:38:27;26.67;;;9.07;;
69769;SDS011;57282;52.514;13.458;2023-02-08T05:40:53;22.77;;;9.83;;
69769;SDS011;57282;52.514;13.458;2023-02-08T05:43:20;26.10;;;10.68;;
69769;SDS011;57282;52.514;13.458;2023-02-08T05:45:46;27.33;;;9.63;;
69769;SDS011;57282;52.514;13.458;2023-02-08T05:48:15;24.35;;;10.55;;
69769;SDS011;57282;52.514;13.458;2023-02-08T05:50:42;28.38;;;10.65;;
69769;SDS011;57282;52.514;13.458;2023-02-08T05:53:08;24.90;;;9.63;;
69769;SDS011;57282;52.514;13.458;2023-02-08T05:55:35;23.73;;;10.05;;
69769;SDS011;57282;52.514;13.458;2023-02-08T05:58:01;27.58;;;10.63;;
69769;SDS011;57282;52.514;13.458;2023-02-08T06:00:28;26.63;;;10.43;;
69769;SDS011;57282;52.514;13.458;2023-02-08T06:02:55;28.88;;;10.77;;
69769;SDS011;57282;52.514;13.458;2023-02-08T06:05:23;25.43;;;9.43;;
69769;SDS011;57282;52.514;13.458;2023-02-08T06:07:50;27.27;;;11.10;;
69769;SDS011;57282;52.514;13.458;2023-02-08T06:10:16;28.73;;;11.05;;
69769;SDS011;57282;52.514;13.458;2023-02-08T06:12:43;30.20;;;11.13;;
69769;SDS011;57282;52.514;13.458;2023-02-08T06:15:09;28.63;;;10.55;;
69769;SDS011;57282;52.514;13.458;2023-02-08T06:17:36;23.87;;;10.20;;
69769;SDS011;57282;52.514;13.458;2023-02-08T06:20:03;21.88;;;10.20;;
69769;SDS011;57282;52.514;13.458;2023-02-08T06:22:32;23.13;;;9.55;;
69769;SDS011;57282;52.514;13.458;2023-02-08T06:24:59;26.90;;;12.07;;
69769;SDS011;57282;52.514;13.458;2023-02-08T06:27:26;28.33;;;11.40;;
69769;SDS011;57282;52.514;13.458;2023-02-08T06:29:52;25.13;;;10.53;;
69769;SDS011;57282;52.514;13.458;2023-02-08T06:32:19;21.67;;;9.88;;
69769;SDS011;57282;52.514;13.458;2023-02-08T06:34:45;33.67;;;10.63;;
69769;SDS011;57282;52.514;13.458;2023-02-08T06:37:14;29.17;;;10.25;;
69769;SDS011;57282;52.514;13.458;2023-02-08T06:39:42;28.40;;;10.63;;
69769;SDS011;57282;52.514;13.458;2023-02-08T06:42:09;27.20;;;11.60;;
69769;SDS011;57282;52.514;13.458;2023-02-08T06:44:35;28.00;;;11.50;;
69769;SDS011;57282;52.514;13.458;2023-02-08T06:47:02;27.02;;;11.32;;
69769;SDS011;57282;52.514;13.458;2023-02-08T06:49:29;27.60;;;11.20;;
69769;SDS011;57282;52.514;13.458;2023-02-08T06:51:55;33.63;;;11.25;;
69769;SDS011;57282;52.514;13.458;2023-02-08T06:54:21;24.63;;;11.00;;
69769;SDS011;57282;52.514;13.458;2023-02-08T06:56:49;31.00;;;11.73;;
69769;SDS011;57282;52.514;13.458;2023-02-08T06:59:16;28.08;;;10.38;;
69769;SDS011;57282;52.514;13.458;2023-02-08T07:01:42;24.38;;;10.45;;
69769;SDS011;57282;52.514;13.458;2023-02-08T07:04:09;27.30;;;10.65;;
69769;SDS011;57282;52.514;13.458;2023-02-08T07:06:35;30.63;;;11.37;;
69769;SDS011;57282;52.514;13.458;2023-02-08T07:09:02;28.90;;;10.60;;
69769;SDS011;57282;52.514;13.458;2023-02-08T07:11:28;26.17;;;9.50;;
69769;SDS011;57282;52.514;13.458;2023-02-08T07:13:56;28.38;;;10.95;;
69769;SDS011;57282;52.514;13.458;2023-02-08T07:16:23;28.80;;;11.48;;
69769;SDS011;57282;52.514;13.458;2023-02-08T07:18:49;28.43;;;12.30;;
69769;SDS011;57282;52.514;13.458;2023-02-08T07:21:16;26.88;;;11.18;;
69769;SDS011;57282;52.514;13.458;2023-02-08T07:23:42;32.72;;;11.43;;
69769;SDS011;57282;52.514;13.458;2023-02-08T07:26:10;29.60;;;11.18;;
69769;SDS011;57282;52.514;13.458;2023-02-08T07:28:38;28.33;;;11.27;;
69769;SDS011;57282;52.514;13.458;2023-02-08T07:31:06;32.03;;;11.57;;
69769;SDS011;57282;52.514;13.458;2023-02-08T07:33:34;31.25;;;11.43;;
69769;SDS011;57282;52.514;13.458;2023-02-08T07:36:01;26.92;;;11.40;;
69769;SDS011;57282;52.514;13.458;2023-02-08T07:38:29;27.17;;;11.25;;
69769;SDS011;57282;52.514;13.458;2023-02-08T07:40:58;26.90;;;10.35;;
69769;SDS011;57282;52.514;13.458;2023-02-08T07:43:26;32.50;;;11.30;;
69769;SDS011;57282;52.514;13.458;2023-02-08T07:45:52;28.30;;;11.60;;
69769;SDS011;57282;52.514;13.458;2023-02-08T07:48:20;28.98;;;11.52;;
69769;SDS011;57282;52.514;13.458;2023-02-08T07:50:47;26.80;;;10.85;;
69769;SDS011;57282;52.514;13.458;2023-02-08T07:53:14;29.67;;;11.18;;
69769;SDS011;57282;52.514;13.458;2023-02-08T07:55:40;30.43;;;12.10;;
69769;SDS011;57282;52.514;13.458;2023-02-08T07:58:07;34.15;;;13.13;;
69769;SDS011;57282;52.514;13.458;2023-02-08T08:00:33;32.65;;;12.15;;
69769;SDS011;57282;52.514;13.458;2023-02-08T08:03:00;33.20;;;12.43;;
69769;SDS011;57282;52.514;13.458;2023-02-08T08:05:28;33.63;;;12.15;;
69769;SDS011;57282;52.514;13.458;2023-02-08T08:07:55;31.30;;;12.43;;
69769;SDS011;57282;52.514;13.458;2023-02-08T08:10:21;30.50;;;12.60;;
69769;SDS011;57282;52.514;13.458;2023-02-08T08:12:48;32.78;;;12.45;;
69769;SDS011;57282;52.514;13.458;2023-02-08T08:15:14;28.08;;;11.73;;
69769;SDS011;57282;52.514;13.458;2023-02-08T08:17:41;29.92;;;11.73;;
69769;SDS011;57282;52.514;13.458;2023-02-08T08:20:08;34.90;;;12.73;;
69769;SDS011;57282;52.514;13.458;2023-02-08T08:22:37;28.25;;;12.00;;
69769;SDS011;57282;52.514;13.458;2023-02-08T08:25:04;33.28;;;12.93;;
69769;SDS011;57282;52.514;13.458;2023-02-08T08:27:31;32.05;;;12.25;;
69769;SDS011;57282;52.514;13.458;2023-02-08T08:29:59;35.55;;;12.18;;
69769;SDS011;57282;52.514;13.458;2023-02-08T08:32:25;29.70;;;10.97;;
69769;SDS011;57282;52.514;13.458;2023-02-08T08:34:52;27.10;;;11.40;;
69769;SDS011;57282;52.514;13.458;2023-02-08T08:37:18;32.42;;;13.75;;
69769;SDS011;57282;52.514;13.458;2023-02-08T08:39:46;32.47;;;12.27;;
69769;SDS011;57282;52.514;13.458;2023-02-08T08:42:13;27.77;;;10.35;;
69769;SDS011;57282;52.514;13.458;2023-02-08T08:44:39;31.07;;;12.80;;
69769;SDS011;57282;52.514;13.458;2023-02-08T08:47:07;35.00;;;12.95;;
69769;SDS011;57282;52.514;13.458;2023-02-08T08:49:34;31.67;;;11.55;;
69769;SDS011;57282;52.514;13.458;2023-02-08T08:52:00;35.75;;;13.43;;
69769;SDS011;57282;52.514;13.458;2023-02-08T08:54:27;28.88;;;12.10;;
69769;SDS011;57282;52.514;13.458;2023-02-08T08:56:55;34.20;;;14.77;;
69769;SDS011;57282;52.514;13.458;2023-02-08T08:59:21;40.47;;;14.98;;
69769;SDS011;57282;52.514;13.458;2023-02-08T09:01:49;32.30;;;12.25;;
69769;SDS011;57282;52.514;13.458;2023-02-08T09:04:15;30.15;;;12.88;;
69769;SDS011;57282;52.514;13.458;2023-02-08T09:06:42;27.88;;;13.05;;
69769;SDS011;57282;52.514;13.458;2023-02-08T09:09:08;31.20;;;12.83;;
69769;SDS011;57282;52.514;13.458;2023-02-08T09:11:35;35.80;;;13.50;;
69769;SDS011;57282;52.514;13.458;2023-02-08T09:14:05;37.88;;;14.07;;
69769;SDS011;57282;52.514;13.458;2023-02-08T09:16:32;37.42;;;15.63;;
69769;SDS011;57282;52.514;13.458;2023-02-08T09:18:59;30.50;;;13.25;;
69769;SDS011;57282;52.514;13.458;2023-02-08T09:21:28;32.40;;;13.53;;
69769;SDS011;57282;52.514;13.458;2023-02-08T09:23:55;34.17;;;12.30;;
69769;SDS011;57282;52.514;13.458;2023-02-08T09:26:22;37.28;;;14.60;;
69769;SDS011;57282;52.514;13.458;2023-02-08T09:28:50;36.30;;;14.35;;
69769;SDS011;57282;52.514;13.458;2023-02-08T09:31:19;42.40;;;12.85;;
69769;SDS011;57282;52.514;13.458;2023-02-08T09:33:47;36.57;;;13.83;;
69769;SDS011;57282;52.514;13.458;2023-02-08T09:36:17;35.53;;;13.98;;
69769;SDS011;57282;52.514;13.458;2023-02-08T09:38:45;32.63;;;13.27;;
69769;SDS011;57282;52.514;13.458;2023-02-08T09:41:16;40.97;;;14.98;;
69769;SDS011;57282;52.514;13.458;2023-02-08T09:43:54;31.75;;;12.63;;
69769;SDS011;57282;52.514;13.458;2023-02-08T09:46:34;34.63;;;14.83;;
69769;SDS011;57282;52.514;13.458;2023-02-08T09:49:08;41.65;;;13.90;;
69769;SDS011;57282;52.514;13.458;2023-02-08T09:51:42;33.00;;;14.38;;
69769;SDS011;57282;52.514;13.458;2023-02-08T09:54:16;41.63;;;14.57;;
69769;SDS011;57282;52.514;13.458;2023-02-08T09:56:45;37.25;;;14.00;;
69769;SDS011;57282;52.514;13.458;2023-02-08T09:59:14;38.07;;;13.53;;
69769;SDS011;57282;52.514;13.458;2023-02-08T10:01:44;42.63;;;15.75;;
69769;SDS011;57282;52.514;13.458;2023-02-08T10:04:14;40.42;;;14.57;;
69769;SDS011;57282;52.514;13.458;2023-02-08T10:06:48;39.90;;;14.23;;
69769;SDS011;57282;52.514;13.458;2023-02-08T10:09:17;35.35;;;13.80;;
69769;SDS011;57282;52.514;13.458;2023-02-08T10:11:48;36.93;;;15.33;;
69769;SDS011;57282;52.514;13.458;2023-02-08T10:14:34;36.70;;;14.70;;
69769;SDS011;57282;52.514;13.458;2023-02-08T10:17:08;34.03;;;14.27;;
69769;SDS011;57282;52.514;13.458;2023-02-08T10:19:57;39.05;;;16.02;;
69769;SDS011;57282;52.514;13.458;2023-02-08T10:22:31;38.22;;;13.95;;
69769;SDS011;57282;52.514;13.458;2023-02-08T10:25:15;34.90;;;14.43;;
69769;SDS011;57282;52.514;13.458;2023-02-08T10:27:55;40.08;;;15.50;;
69769;SDS011;57282;52.514;13.458;2023-02-08T10:30:38;36.22;;;13.73;;
69769;SDS011;57282;52.514;13.458;2023-02-08T10:33:13;42.10;;;14.45;;
69769;SDS011;57282;52.514;13.458;2023-02-08T10:35:45;38.50;;;13.88;;
69769;SDS011;57282;52.514;13.458;2023-02-08T10:40:59;34.88;;;14.00;;
69769;SDS011;57282;52.514;13.458;2023-02-08T10:43:33;40.08;;;14.13;;
69769;SDS011;57282;52.514;13.458;2023-02-08T10:46:07;38.42;;;15.10;;
69769;SDS011;57282;52.514;13.458;2023-02-08T10:48:40;42.33;;;14.70;;
69769;SDS011;57282;52.514;13.458;2023-02-08T10:51:14;36.80;;;14.13;;
69769;SDS011;57282;52.514;13.458;2023-02-08T10:53:42;33.65;;;14.38;;
69769;SDS011;57282;52.514;13.458;2023-02-08T10:56:11;42.33;;;14.90;;
69769;SDS011;57282;52.514;13.458;2023-02-08T10:58:49;46.35;;;15.60;;
69769;SDS011;57282;52.514;13.458;2023-02-08T11:01:16;41.67;;;14.23;;
69769;SDS011;57282;52.514;13.458;2023-02-08T11:06:28;40.60;;;14.63;;
69769;SDS011;57282;52.514;13.458;2023-02-08T11:08:56;40.10;;;16.48;;
69769;SDS011;57282;52.514;13.458;2023-02-08T11:11:26;39.78;;;15.95;;
69769;SDS011;57282;52.514;13.458;2023-02-08T11:14:04;43.03;;;14.75;;
69769;SDS011;57282;52.514;13.458;2023-02-08T11:16:33;44.27;;;16.47;;
69769;SDS011;57282;52.514;13.458;2023-02-08T11:19:02;39.58;;;14.48;;
69769;SDS011;57282;52.514;13.458;2023-02-08T11:21:32;34.25;;;14.50;;
69769;SDS011;57282;52.514;13.458;2023-02-08T11:24:03;38.13;;;15.75;;
69769;SDS011;57282;52.514;13.458;2023-02-08T11:26:43;32.78;;;14.70;;
69769;SDS011;57282;52.514;13.458;2023-02-08T11:29:11;33.47;;;14.47;;
69769;SDS011;57282;52.514;13.458;2023-02-08T11:31:40;40.70;;;15.98;;
69769;SDS011;57282;52.514;13.458;2023-02-08T11:34:24;45.05;;;15.48;;
69769;SDS011;57282;52.514;13.458;2023-02-08T11:36:51;36.15;;;14.13;;
69769;SDS011;57282;52.514;13.458;2023-02-08T11:39:20;33.95;;;13.52;;
69769;SDS011;57282;52.514;13.458;2023-02-08T11:41:51;39.63;;;15.43;;
69769;SDS011;57282;52.514;13.458;2023-02-08T11:44:21;41.50;;;14.90;;
69769;SDS011;57282;52.514;13.458;2023-02-08T11:46:50;41.72;;;15.93;;
69769;SDS011;57282;52.514;13.458;2023-02-08T11:49:19;44.35;;;16.10;;
69769;SDS011;57282;52.514;13.458;2023-02-08T11:51:49;37.88;;;14.43;;
69769;SDS011;57282;52.514;13.458;2023-02-08T11:54:33;45.47;;;18.23;;
69769;SDS011;57282;52.514;13.458;2023-02-08T11:57:08;30.60;;;13.93;;
69769;SDS011;57282;52.514;13.458;2023-02-08T11:59:37;36.75;;;15.50;;
69769;SDS011;57282;52.514;13.458;2023-02-08T12:04:52;41.85;;;15.05;;
69769;SDS011;57282;52.514;13.458;2023-02-08T12:07:21;35.63;;;13.67;;
69769;SDS011;57282;52.514;13.458;2023-02-08T12:10:02;33.15;;;14.02;;
69769;SDS011;57282;52.514;13.458;2023-02-08T12:12:55;36.55;;;13.68;;
69769;SDS011;57282;52.514;13.458;2023-02-08T12:15:39;37.25;;;16.30;;
69769;SDS011;57282;52.514;13.458;2023-02-08T12:18:17;32.08;;;13.65;;
69769;SDS011;57282;52.514;13.458;2023-02-08T12:20:52;37.23;;;13.67;;
69769;SDS011;57282;52.514;13.458;2023-02-08T12:23:30;40.15;;;14.00;;
69769;SDS011;57282;52.514;13.458;2023-02-08T12:26:10;38.50;;;14.32;;
69769;SDS011;57282;52.514;13.458;2023-02-08T12:28:52;39.25;;;13.65;;
69769;SDS011;57282;52.514;13.458;2023-02-08T12:31:34;40.85;;;13.98;;
69769;SDS011;57282;52.514;13.458;2023-02-08T12:34:14;38.13;;;14.90;;
69769;SDS011;57282;52.514;13.458;2023-02-08T12:36:49;34.58;;;13.50;;
69769;SDS011;57282;52.514;13.458;2023-02-08T12:39:47;37.00;;;13.73;;
69769;SDS011;57282;52.514;13.458;2023-02-08T12:42:47;33.53;;;12.80;;
69769;SDS011;57282;52.514;13.458;2023-02-08T12:45:32;46.28;;;17.75;;
69769;SDS011;57282;52.514;13.458;2023-02-08T12:48:11;43.50;;;15.97;;
69769;SDS011;57282;52.514;13.458;2023-02-08T12:50:52;39.95;;;15.35;;
69769;SDS011;57282;52.514;13.458;2023-02-08T12:53:24;38.10;;;15.43;;
69769;SDS011;57282;52.514;13.458;2023-02-08T12:55:58;36.95;;;14.20;;
69769;SDS011;57282;52.514;13.458;2023-02-08T12:58:29;33.92;;;13.90;;
69769;SDS011;57282;52.514;13.458;2023-02-08T13:00:59;41.93;;;14.13;;
69769;SDS011;57282;52.514;13.458;2023-02-08T13:03:33;30.40;;;13.35;;
69769;SDS011;57282;52.514;13.458;2023-02-08T13:06:04;38.65;;;13.93;;
69769;SDS011;57282;52.514;13.458;2023-02-08T13:08:33;34.00;;;13.82;;
69769;SDS011;57282;52.514;13.458;2023-02-08T13:11:08;43.22;;;13.93;;
69769;SDS011;57282;52.514;13.458;2023-02-08T13:13:38;39.53;;;14.77;;
69769;SDS011;57282;52.514;13.458;2023-02-08T13:16:15;39.97;;;14.98;;
69769;SDS011;57282;52.514;13.458;2023-02-08T13:18:46;34.72;;;14.18;;
69769;SDS011;57282;52.514;13.458;2023-02-08T13:21:18;40.83;;;14.27;;
69769;SDS011;57282;52.514;13.458;2023-02-08T13:23:48;37.97;;;15.43;;
69769;SDS011;57282;52.514;13.458;2023-02-08T13:26:18;34.50;;;14.40;;
69769;SDS011;57282;52.514;13.458;2023-02-08T13:28:49;38.83;;;15.18;;
69769;SDS011;57282;52.514;13.458;2023-02-08T13:31:17;32.38;;;13.68;;
69769;SDS011;57282;52.514;13.458;2023-02-08T13:33:48;38.65;;;14.02;;
69769;SDS011;57282;52.514;13.458;2023-02-08T13:36:18;34.85;;;13.48;;
69769;SDS011;57282;52.514;13.458;2023-02-08T13:38:48;33.37;;;13.93;;
69769;SDS011;57282;52.514;13.458;2023-02-08T13:41:18;37.42;;;14.65;;
69769;SDS011;57282;52.514;13.458;2023-02-08T13:43:47;33.92;;;13.90;;
69769;SDS011;57282;52.514;13.458;2023-02-08T13:46:17;39.22;;;14.88;;
69769;SDS011;57282;52.514;13.458;2023-02-08T13:48:46;38.75;;;14.55;;
69769;SDS011;57282;52.514;13.458;2023-02-08T13:54:16;35.08;;;14.48;;
69769;SDS011;57282;52.514;13.458;2023-02-08T13:56:44;35.78;;;14.20;;
69769;SDS011;57282;52.514;13.458;2023-02-08T13:59:25;35.70;;;13.40;;
69769;SDS011;57282;52.514;13.458;2023-02-08T14:02:20;37.65;;;14.10;;
69769;SDS011;57282;52.514;13.458;2023-02-08T14:04:51;33.50;;;13.70;;
69769;SDS011;57282;52.514;13.458;2023-02-08T14:07:22;39.45;;;13.45;;
69769;SDS011;57282;52.514;13.458;2023-02-08T14:12:47;35.97;;;13.50;;
69769;SDS011;57282;52.514;13.458;2023-02-08T14:15:23;38.45;;;13.85;;
69769;SDS011;57282;52.514;13.458;2023-02-08T14:17:52;36.70;;;13.87;;
69769;SDS011;57282;52.514;13.458;2023-02-08T14:20:20;38.42;;;15.75;;
69769;SDS011;57282;52.514;13.458;2023-02-08T14:22:52;37.78;;;13.70;;
69769;SDS011;57282;52.514;13.458;2023-02-08T14:25:25;34.58;;;13.80;;
69769;SDS011;57282;52.514;13.458;2023-02-08T14:27:56;36.13;;;14.13;;
69769;SDS011;57282;52.514;13.458;2023-02-08T14:30:24;31.47;;;12.57;;
69769;SDS011;57282;52.514;13.458;2023-02-08T14:33:07;35.85;;;13.98;;
69769;SDS011;57282;52.514;13.458;2023-02-08T14:35:36;32.88;;;13.90;;
69769;SDS011;57282;52.514;13.458;2023-02-08T14:41:17;39.38;;;12.95;;
69769;SDS011;57282;52.514;13.458;2023-02-08T14:50:39;32.72;;;13.65;;
69769;SDS011;57282;52.514;13.458;2023-02-08T14:53:24;31.85;;;12.30;;
69769;SDS011;57282;52.514;13.458;2023-02-08T14:55:55;28.45;;;12.57;;